sensor_id;sensor_type;location;lat;lon;timestamp;P1;durP1;ratioP1;P2;durP2;ratioP2
77602;SDS011;66771;52.434;17.056;2023-04-24T00:01:06;23.50;;;17.90;;
77602;SDS011;66771;52.434;17.056;2023-04-24T00:03:33;22.20;;;17.30;;
77602;SDS011;66771;52.434;17.056;2023-04-24T00:06:01;21.90;;;17.70;;
77602;SDS011;66771;52.434;17.056;2023-04-24T00:08:28;21.70;;;18.00;;
77602;SDS011;66771;52.434;17.056;2023-04-24T00:10:55;24.30;;;17.40;;
77602;SDS011;66771;52.434;17.056;2023-04-24T00:13:22;22.10;;;18.40;;
77602;SDS011;66771;52.434;17.056;2023-04-24T00:15:50;22.50;;;17.30;;
77602;SDS011;66771;52.434;17.056;2023-04-24T00:18:16;23.70;;;17.50;;
77602;SDS011;66771;52.434;17.056;2023-04-24T00:20:43;23.20;;;17.70;;
77602;SDS011;66771;52.434;17.056;2023-04-24T00:23:12;23.00;;;18.30;;
77602;SDS011;66771;52.434;17.056;2023-04-24T00:25:39;22.60;;;17.60;;
77602;SDS011;66771;52.434;17.056;2023-04-24T00:28:06;20.70;;;16.90;;
77602;SDS011;66771;52.434;17.056;2023-04-24T00:30:33;21.90;;;18.20;;
77602;SDS011;66771;52.434;17.056;2023-04-24T00:32:59;24.20;;;17.50;;
77602;SDS011;66771;52.434;17.056;2023-04-24T00:35:26;20.90;;;17.70;;
77602;SDS011;66771;52.434;17.056;2023-04-24T00:37:53;21.80;;;16.90;;
77602;SDS011;66771;52.434;17.056;2023-04-24T00:40:19;22.50;;;17.50;;
77602;SDS011;66771;52.434;17.056;2023-04-24T00:42:47;20.90;;;16.70;;
77602;SDS011;66771;52.434;17.056;2023-04-24T00:45:14;23.50;;;17.80;;
77602;SDS011;66771;52.434;17.056;2023-04-24T00:47:41;22.30;;;16.50;;
77602;SDS011;66771;52.434;17.056;2023-04-24T00:50:08;21.30;;;17.70;;
77602;SDS011;66771;52.434;17.056;2023-04-24T00:52:36;22.70;;;17.50;;
77602;SDS011;66771;52.434;17.056;2023-04-24T00:55:03;20.00;;;15.90;;
77602;SDS011;66771;52.434;17.056;2023-04-24T00:57:30;23.40;;;16.20;;
77602;SDS011;66771;52.434;17.056;2023-04-24T00:59:57;24.90;;;15.40;;
77602;SDS011;66771;52.434;17.056;2023-04-24T01:02:24;24.40;;;15.90;;
77602;SDS011;66771;52.434;17.056;2023-04-24T01:04:51;27.60;;;17.80;;
77602;SDS011;66771;52.434;17.056;2023-04-24T01:07:21;20.80;;;17.10;;
77602;SDS011;66771;52.434;17.056;2023-04-24T01:09:48;20.50;;;16.20;;
77602;SDS011;66771;52.434;17.056;2023-04-24T01:12:19;20.40;;;15.50;;
77602;SDS011;66771;52.434;17.056;2023-04-24T01:14:46;18.80;;;15.40;;
77602;SDS011;66771;52.434;17.056;2023-04-24T01:17:15;22.00;;;16.60;;
77602;SDS011;66771;52.434;17.056;2023-04-24T01:19:42;21.00;;;17.80;;
77602;SDS011;66771;52.434;17.056;2023-04-24T01:22:12;24.10;;;17.30;;
77602;SDS011;66771;52.434;17.056;2023-04-24T01:24:43;21.50;;;16.90;;
77602;SDS011;66771;52.434;17.056;2023-04-24T01:27:12;20.70;;;15.90;;
77602;SDS011;66771;52.434;17.056;2023-04-24T01:29:39;19.40;;;15.00;;
77602;SDS011;66771;52.434;17.056;2023-04-24T01:32:06;21.90;;;16.10;;
77602;SDS011;66771;52.434;17.056;2023-04-24T01:34:32;19.00;;;15.80;;
77602;SDS011;66771;52.434;17.056;2023-04-24T01:37:01;19.70;;;15.20;;
77602;SDS011;66771;52.434;17.056;2023-04-24T01:39:28;18.40;;;15.90;;
77602;SDS011;66771;52.434;17.056;2023-04-24T01:41:55;18.80;;;15.90;;
77602;SDS011;66771;52.434;17.056;2023-04-24T01:44:25;19.30;;;15.90;;
77602;SDS011;66771;52.434;17.056;2023-04-24T01:46:55;20.80;;;16.00;;
77602;SDS011;66771;52.434;17.056;2023-04-24T01:49:24;17.50;;;15.10;;
77602;SDS011;66771;52.434;17.056;2023-04-24T01:51:51;17.60;;;15.10;;
77602;SDS011;66771;52.434;17.056;2023-04-24T01:54:18;19.50;;;15.80;;
77602;SDS011;66771;52.434;17.056;2023-04-24T01:56:46;21.20;;;16.40;;
77602;SDS011;66771;52.434;17.056;2023-04-24T01:59:13;23.00;;;16.20;;
77602;SDS011;66771;52.434;17.056;2023-04-24T02:01:43;23.00;;;17.30;;
77602;SDS011;66771;52.434;17.056;2023-04-24T02:04:10;23.10;;;16.70;;
77602;SDS011;66771;52.434;17.056;2023-04-24T02:06:36;20.70;;;16.00;;
77602;SDS011;66771;52.434;17.056;2023-04-24T02:09:03;22.00;;;16.00;;
77602;SDS011;66771;52.434;17.056;2023-04-24T02:11:30;19.50;;;14.80;;
77602;SDS011;66771;52.434;17.056;2023-04-24T02:13:57;17.90;;;13.90;;
77602;SDS011;66771;52.434;17.056;2023-04-24T02:16:24;19.20;;;14.80;;
77602;SDS011;66771;52.434;17.056;2023-04-24T02:18:51;17.80;;;14.20;;
77602;SDS011;66771;52.434;17.056;2023-04-24T02:21:18;19.50;;;14.40;;
77602;SDS011;66771;52.434;17.056;2023-04-24T02:23:45;16.60;;;14.40;;
77602;SDS011;66771;52.434;17.056;2023-04-24T02:26:13;18.40;;;13.80;;
77602;SDS011;66771;52.434;17.056;2023-04-24T02:28:40;16.70;;;13.10;;
77602;SDS011;66771;52.434;17.056;2023-04-24T02:31:06;16.80;;;13.80;;
77602;SDS011;66771;52.434;17.056;2023-04-24T02:33:33;14.60;;;12.90;;
77602;SDS011;66771;52.434;17.056;2023-04-24T02:36:01;16.40;;;13.30;;
77602;SDS011;66771;52.434;17.056;2023-04-24T02:38:29;16.50;;;11.90;;
77602;SDS011;66771;52.434;17.056;2023-04-24T02:40:56;16.00;;;13.40;;
77602;SDS011;66771;52.434;17.056;2023-04-24T02:43:23;16.90;;;12.70;;
77602;SDS011;66771;52.434;17.056;2023-04-24T02:45:53;15.10;;;12.70;;
77602;SDS011;66771;52.434;17.056;2023-04-24T02:48:23;16.80;;;13.00;;
77602;SDS011;66771;52.434;17.056;2023-04-24T02:50:50;17.70;;;13.20;;
77602;SDS011;66771;52.434;17.056;2023-04-24T02:53:19;15.10;;;12.70;;
77602;SDS011;66771;52.434;17.056;2023-04-24T02:55:46;18.70;;;14.10;;
77602;SDS011;66771;52.434;17.056;2023-04-24T02:58:13;18.00;;;13.30;;
77602;SDS011;66771;52.434;17.056;2023-04-24T03:00:40;15.80;;;12.30;;
77602;SDS011;66771;52.434;17.056;2023-04-24T03:03:11;18.10;;;13.00;;
77602;SDS011;66771;52.434;17.056;2023-04-24T03:05:46;16.60;;;12.60;;
77602;SDS011;66771;52.434;17.056;2023-04-24T03:08:13;14.90;;;12.10;;
77602;SDS011;66771;52.434;17.056;2023-04-24T03:10:42;18.50;;;13.60;;
77602;SDS011;66771;52.434;17.056;2023-04-24T03:13:09;17.40;;;12.40;;
77602;SDS011;66771;52.434;17.056;2023-04-24T03:15:36;17.10;;;13.30;;
77602;SDS011;66771;52.434;17.056;2023-04-24T03:18:03;15.60;;;13.30;;
77602;SDS011;66771;52.434;17.056;2023-04-24T03:20:30;16.40;;;12.90;;
77602;SDS011;66771;52.434;17.056;2023-04-24T03:22:58;19.00;;;13.40;;
77602;SDS011;66771;52.434;17.056;2023-04-24T03:25:28;15.80;;;13.60;;
77602;SDS011;66771;52.434;17.056;2023-04-24T03:27:55;23.60;;;14.30;;
77602;SDS011;66771;52.434;17.056;2023-04-24T03:30:38;19.30;;;14.30;;
77602;SDS011;66771;52.434;17.056;2023-04-24T03:33:05;14.80;;;13.30;;
77602;SDS011;66771;52.434;17.056;2023-04-24T03:35:35;14.90;;;11.50;;
77602;SDS011;66771;52.434;17.056;2023-04-24T03:38:05;17.10;;;13.40;;
77602;SDS011;66771;52.434;17.056;2023-04-24T03:40:44;14.60;;;12.60;;
77602;SDS011;66771;52.434;17.056;2023-04-24T03:43:32;15.50;;;12.40;;
77602;SDS011;66771;52.434;17.056;2023-04-24T03:46:01;14.60;;;11.70;;
77602;SDS011;66771;52.434;17.056;2023-04-24T03:48:29;15.80;;;12.40;;
77602;SDS011;66771;52.434;17.056;2023-04-24T03:50:56;16.10;;;11.80;;
77602;SDS011;66771;52.434;17.056;2023-04-24T03:53:23;15.70;;;12.70;;
77602;SDS011;66771;52.434;17.056;2023-04-24T03:55:53;18.40;;;12.60;;
77602;SDS011;66771;52.434;17.056;2023-04-24T03:58:21;16.50;;;11.90;;
77602;SDS011;66771;52.434;17.056;2023-04-24T04:00:49;16.90;;;13.10;;
77602;SDS011;66771;52.434;17.056;2023-04-24T04:03:37;16.10;;;12.60;;
77602;SDS011;66771;52.434;17.056;2023-04-24T04:06:07;17.60;;;13.60;;
77602;SDS011;66771;52.434;17.056;2023-04-24T04:08:34;15.00;;;11.80;;
77602;SDS011;66771;52.434;17.056;2023-04-24T04:11:01;15.70;;;12.90;;
77602;SDS011;66771;52.434;17.056;2023-04-24T04:13:29;17.40;;;13.10;;
77602;SDS011;66771;52.434;17.056;2023-04-24T04:15:56;17.10;;;12.10;;
77602;SDS011;66771;52.434;17.056;2023-04-24T04:18:23;16.80;;;11.40;;
77602;SDS011;66771;52.434;17.056;2023-04-24T04:20:51;14.00;;;11.40;;
77602;SDS011;66771;52.434;17.056;2023-04-24T04:23:18;16.10;;;10.90;;
77602;SDS011;66771;52.434;17.056;2023-04-24T04:26:17;14.60;;;11.60;;
77602;SDS011;66771;52.434;17.056;2023-04-24T04:29:01;13.70;;;11.50;;
77602;SDS011;66771;52.434;17.056;2023-04-24T04:31:29;18.20;;;12.10;;
77602;SDS011;66771;52.434;17.056;2023-04-24T04:34:01;13.70;;;11.60;;
77602;SDS011;66771;52.434;17.056;2023-04-24T04:36:32;14.30;;;12.40;;
77602;SDS011;66771;52.434;17.056;2023-04-24T04:39:12;16.40;;;13.00;;
77602;SDS011;66771;52.434;17.056;2023-04-24T04:41:46;15.10;;;12.40;;
77602;SDS011;66771;52.434;17.056;2023-04-24T04:44:19;17.00;;;13.00;;
77602;SDS011;66771;52.434;17.056;2023-04-24T04:46:46;19.60;;;13.10;;
77602;SDS011;66771;52.434;17.056;2023-04-24T04:49:28;15.90;;;12.10;;
77602;SDS011;66771;52.434;17.056;2023-04-24T04:51:57;14.10;;;12.30;;
77602;SDS011;66771;52.434;17.056;2023-04-24T04:54:26;17.00;;;12.20;;
77602;SDS011;66771;52.434;17.056;2023-04-24T04:56:53;16.40;;;12.70;;
77602;SDS011;66771;52.434;17.056;2023-04-24T04:59:21;14.30;;;11.80;;
77602;SDS011;66771;52.434;17.056;2023-04-24T05:01:49;13.10;;;10.90;;
77602;SDS011;66771;52.434;17.056;2023-04-24T05:04:25;13.40;;;10.90;;
77602;SDS011;66771;52.434;17.056;2023-04-24T05:06:52;13.70;;;11.10;;
77602;SDS011;66771;52.434;17.056;2023-04-24T05:09:20;16.20;;;11.60;;
77602;SDS011;66771;52.434;17.056;2023-04-24T05:12:02;12.10;;;10.50;;
77602;SDS011;66771;52.434;17.056;2023-04-24T05:14:30;15.60;;;11.40;;
77602;SDS011;66771;52.434;17.056;2023-04-24T05:16:57;14.20;;;10.50;;
77602;SDS011;66771;52.434;17.056;2023-04-24T05:19:27;18.00;;;11.90;;
77602;SDS011;66771;52.434;17.056;2023-04-24T05:21:55;15.00;;;11.40;;
77602;SDS011;66771;52.434;17.056;2023-04-24T05:24:22;16.40;;;10.80;;
77602;SDS011;66771;52.434;17.056;2023-04-24T05:27:06;14.00;;;10.70;;
77602;SDS011;66771;52.434;17.056;2023-04-24T05:29:39;13.40;;;10.10;;
77602;SDS011;66771;52.434;17.056;2023-04-24T05:32:09;14.90;;;10.80;;
77602;SDS011;66771;52.434;17.056;2023-04-24T05:34:36;17.60;;;11.10;;
77602;SDS011;66771;52.434;17.056;2023-04-24T05:37:03;13.40;;;10.10;;
77602;SDS011;66771;52.434;17.056;2023-04-24T05:39:37;13.10;;;10.40;;
77602;SDS011;66771;52.434;17.056;2023-04-24T05:42:04;10.60;;;9.50;;
77602;SDS011;66771;52.434;17.056;2023-04-24T05:44:31;13.30;;;10.80;;
77602;SDS011;66771;52.434;17.056;2023-04-24T05:46:59;17.00;;;10.90;;
77602;SDS011;66771;52.434;17.056;2023-04-24T05:49:27;14.50;;;11.20;;
77602;SDS011;66771;52.434;17.056;2023-04-24T05:51:54;17.60;;;12.00;;
77602;SDS011;66771;52.434;17.056;2023-04-24T05:54:22;28.50;;;13.70;;
77602;SDS011;66771;52.434;17.056;2023-04-24T05:56:49;29.10;;;12.40;;
77602;SDS011;66771;52.434;17.056;2023-04-24T05:59:22;25.30;;;11.90;;
77602;SDS011;66771;52.434;17.056;2023-04-24T06:01:51;31.20;;;12.60;;
77602;SDS011;66771;52.434;17.056;2023-04-24T06:04:19;18.00;;;11.90;;
77602;SDS011;66771;52.434;17.056;2023-04-24T06:06:46;14.80;;;11.20;;
77602;SDS011;66771;52.434;17.056;2023-04-24T06:09:18;26.00;;;12.90;;
77602;SDS011;66771;52.434;17.056;2023-04-24T06:11:44;29.70;;;14.00;;
77602;SDS011;66771;52.434;17.056;2023-04-24T06:14:14;19.20;;;11.40;;
77602;SDS011;66771;52.434;17.056;2023-04-24T06:17:00;12.80;;;10.80;;
77602;SDS011;66771;52.434;17.056;2023-04-24T06:19:36;20.40;;;11.10;;
77602;SDS011;66771;52.434;17.056;2023-04-24T06:22:06;13.00;;;10.10;;
77602;SDS011;66771;52.434;17.056;2023-04-24T06:24:42;24.90;;;11.50;;
77602;SDS011;66771;52.434;17.056;2023-04-24T06:27:09;12.60;;;10.40;;
77602;SDS011;66771;52.434;17.056;2023-04-24T06:29:36;14.90;;;11.10;;
77602;SDS011;66771;52.434;17.056;2023-04-24T06:32:03;15.00;;;10.90;;
77602;SDS011;66771;52.434;17.056;2023-04-24T06:34:30;13.60;;;10.00;;
77602;SDS011;66771;52.434;17.056;2023-04-24T06:36:58;15.40;;;10.30;;
77602;SDS011;66771;52.434;17.056;2023-04-24T06:39:28;14.10;;;10.40;;
77602;SDS011;66771;52.434;17.056;2023-04-24T06:42:03;14.90;;;11.40;;
77602;SDS011;66771;52.434;17.056;2023-04-24T06:44:32;17.20;;;10.10;;
77602;SDS011;66771;52.434;17.056;2023-04-24T06:47:01;11.00;;;9.60;;
77602;SDS011;66771;52.434;17.056;2023-04-24T06:49:28;12.60;;;10.00;;
77602;SDS011;66771;52.434;17.056;2023-04-24T06:52:04;13.90;;;9.50;;
77602;SDS011;66771;52.434;17.056;2023-04-24T06:54:35;12.80;;;9.60;;
77602;SDS011;66771;52.434;17.056;2023-04-24T06:57:02;13.90;;;9.70;;
77602;SDS011;66771;52.434;17.056;2023-04-24T06:59:29;14.60;;;10.10;;
77602;SDS011;66771;52.434;17.056;2023-04-24T07:01:57;16.70;;;10.20;;
77602;SDS011;66771;52.434;17.056;2023-04-24T07:04:24;17.30;;;11.30;;
77602;SDS011;66771;52.434;17.056;2023-04-24T07:06:51;15.00;;;9.80;;
77602;SDS011;66771;52.434;17.056;2023-04-24T07:09:20;13.40;;;9.60;;
77602;SDS011;66771;52.434;17.056;2023-04-24T07:11:48;20.30;;;9.30;;
77602;SDS011;66771;52.434;17.056;2023-04-24T07:14:15;13.20;;;9.30;;
77602;SDS011;66771;52.434;17.056;2023-04-24T07:16:45;14.30;;;9.20;;
77602;SDS011;66771;52.434;17.056;2023-04-24T07:19:12;15.80;;;9.80;;
77602;SDS011;66771;52.434;17.056;2023-04-24T07:21:46;13.40;;;9.00;;
77602;SDS011;66771;52.434;17.056;2023-04-24T07:24:12;11.10;;;9.60;;
77602;SDS011;66771;52.434;17.056;2023-04-24T07:26:39;13.90;;;9.30;;
77602;SDS011;66771;52.434;17.056;2023-04-24T07:29:06;13.60;;;9.10;;
77602;SDS011;66771;52.434;17.056;2023-04-24T07:31:34;12.50;;;9.20;;
77602;SDS011;66771;52.434;17.056;2023-04-24T07:34:01;11.50;;;9.00;;
77602;SDS011;66771;52.434;17.056;2023-04-24T07:36:28;12.40;;;8.10;;
77602;SDS011;66771;52.434;17.056;2023-04-24T07:38:55;13.80;;;8.50;;
77602;SDS011;66771;52.434;17.056;2023-04-24T07:41:23;11.10;;;9.40;;
77602;SDS011;66771;52.434;17.056;2023-04-24T07:43:51;9.30;;;8.40;;
77602;SDS011;66771;52.434;17.056;2023-04-24T07:46:19;11.50;;;9.30;;
77602;SDS011;66771;52.434;17.056;2023-04-24T07:48:47;11.40;;;9.20;;
77602;SDS011;66771;52.434;17.056;2023-04-24T07:51:14;14.50;;;9.20;;
77602;SDS011;66771;52.434;17.056;2023-04-24T07:53:42;10.20;;;8.60;;
77602;SDS011;66771;52.434;17.056;2023-04-24T07:56:09;10.30;;;9.10;;
77602;SDS011;66771;52.434;17.056;2023-04-24T07:58:37;10.30;;;8.40;;
77602;SDS011;66771;52.434;17.056;2023-04-24T08:01:04;10.50;;;8.10;;
77602;SDS011;66771;52.434;17.056;2023-04-24T08:03:31;9.60;;;8.20;;
77602;SDS011;66771;52.434;17.056;2023-04-24T08:05:58;8.60;;;7.00;;
77602;SDS011;66771;52.434;17.056;2023-04-24T08:08:24;9.80;;;7.90;;
77602;SDS011;66771;52.434;17.056;2023-04-24T08:10:54;9.00;;;8.00;;
77602;SDS011;66771;52.434;17.056;2023-04-24T08:13:22;10.40;;;7.80;;
77602;SDS011;66771;52.434;17.056;2023-04-24T08:15:49;11.10;;;7.70;;
77602;SDS011;66771;52.434;17.056;2023-04-24T08:18:16;10.50;;;7.90;;
77602;SDS011;66771;52.434;17.056;2023-04-24T08:20:43;9.90;;;6.90;;
77602;SDS011;66771;52.434;17.056;2023-04-24T08:23:12;10.00;;;6.90;;
77602;SDS011;66771;52.434;17.056;2023-04-24T08:25:39;10.60;;;7.30;;
77602;SDS011;66771;52.434;17.056;2023-04-24T08:28:06;10.90;;;7.20;;
77602;SDS011;66771;52.434;17.056;2023-04-24T08:30:35;10.50;;;7.10;;
77602;SDS011;66771;52.434;17.056;2023-04-24T08:33:02;8.40;;;7.50;;
77602;SDS011;66771;52.434;17.056;2023-04-24T08:35:29;10.60;;;7.30;;
77602;SDS011;66771;52.434;17.056;2023-04-24T08:37:56;14.30;;;7.60;;
77602;SDS011;66771;52.434;17.056;2023-04-24T08:40:27;7.00;;;6.30;;
77602;SDS011;66771;52.434;17.056;2023-04-24T08:42:56;10.20;;;7.50;;
77602;SDS011;66771;52.434;17.056;2023-04-24T08:45:24;9.10;;;6.80;;
77602;SDS011;66771;52.434;17.056;2023-04-24T08:47:53;9.50;;;7.00;;
77602;SDS011;66771;52.434;17.056;2023-04-24T08:50:25;11.70;;;7.00;;
77602;SDS011;66771;52.434;17.056;2023-04-24T08:52:52;9.60;;;7.00;;
77602;SDS011;66771;52.434;17.056;2023-04-24T08:55:20;11.40;;;7.70;;
77602;SDS011;66771;52.434;17.056;2023-04-24T08:57:52;10.40;;;7.10;;
77602;SDS011;66771;52.434;17.056;2023-04-24T09:00:27;9.30;;;7.90;;
77602;SDS011;66771;52.434;17.056;2023-04-24T09:02:54;11.60;;;8.20;;
77602;SDS011;66771;52.434;17.056;2023-04-24T09:05:22;11.30;;;8.80;;
77602;SDS011;66771;52.434;17.056;2023-04-24T09:07:54;11.50;;;8.40;;
77602;SDS011;66771;52.434;17.056;2023-04-24T09:10:24;9.90;;;8.20;;
77602;SDS011;66771;52.434;17.056;2023-04-24T09:12:53;11.60;;;7.90;;
77602;SDS011;66771;52.434;17.056;2023-04-24T09:15:20;13.40;;;7.80;;
77602;SDS011;66771;52.434;17.056;2023-04-24T09:17:47;9.20;;;8.30;;
77602;SDS011;66771;52.434;17.056;2023-04-24T09:20:15;9.70;;;8.70;;
77602;SDS011;66771;52.434;17.056;2023-04-24T09:22:56;9.10;;;8.10;;
77602;SDS011;66771;52.434;17.056;2023-04-24T09:25:31;9.40;;;8.40;;
77602;SDS011;66771;52.434;17.056;2023-04-24T09:28:00;10.20;;;8.60;;
77602;SDS011;66771;52.434;17.056;2023-04-24T09:30:29;11.20;;;8.90;;
77602;SDS011;66771;52.434;17.056;2023-04-24T09:35:52;11.10;;;8.30;;
77602;SDS011;66771;52.434;17.056;2023-04-24T09:38:20;9.70;;;8.30;;
77602;SDS011;66771;52.434;17.056;2023-04-24T09:41:01;13.80;;;8.50;;
77602;SDS011;66771;52.434;17.056;2023-04-24T09:43:30;12.10;;;8.40;;
77602;SDS011;66771;52.434;17.056;2023-04-24T09:45:58;12.60;;;8.90;;
77602;SDS011;66771;52.434;17.056;2023-04-24T09:48:35;9.50;;;8.20;;
77602;SDS011;66771;52.434;17.056;2023-04-24T09:51:07;12.40;;;9.20;;
77602;SDS011;66771;52.434;17.056;2023-04-24T09:53:36;10.20;;;8.10;;
77602;SDS011;66771;52.434;17.056;2023-04-24T09:56:08;12.00;;;8.10;;
77602;SDS011;66771;52.434;17.056;2023-04-24T09:58:36;13.40;;;8.60;;
77602;SDS011;66771;52.434;17.056;2023-04-24T10:01:03;11.80;;;8.80;;
77602;SDS011;66771;52.434;17.056;2023-04-24T10:03:31;9.90;;;8.70;;
77602;SDS011;66771;52.434;17.056;2023-04-24T10:05:59;9.40;;;8.40;;
77602;SDS011;66771;52.434;17.056;2023-04-24T10:08:34;11.00;;;9.70;;
77602;SDS011;66771;52.434;17.056;2023-04-24T10:11:02;13.30;;;8.60;;
77602;SDS011;66771;52.434;17.056;2023-04-24T10:13:31;9.30;;;8.40;;
77602;SDS011;66771;52.434;17.056;2023-04-24T10:16:01;10.40;;;7.90;;
77602;SDS011;66771;52.434;17.056;2023-04-24T10:18:30;11.20;;;8.30;;
77602;SDS011;66771;52.434;17.056;2023-04-24T10:20:59;11.10;;;8.40;;
77602;SDS011;66771;52.434;17.056;2023-04-24T10:23:35;7.90;;;6.70;;
77602;SDS011;66771;52.434;17.056;2023-04-24T10:26:02;8.30;;;6.80;;
77602;SDS011;66771;52.434;17.056;2023-04-24T10:28:30;9.30;;;7.10;;
77602;SDS011;66771;52.434;17.056;2023-04-24T10:30:58;8.70;;;6.70;;
77602;SDS011;66771;52.434;17.056;2023-04-24T10:33:26;8.90;;;6.80;;
77602;SDS011;66771;52.434;17.056;2023-04-24T10:35:53;9.20;;;6.60;;
77602;SDS011;66771;52.434;17.056;2023-04-24T10:38:24;9.10;;;7.00;;
77602;SDS011;66771;52.434;17.056;2023-04-24T10:43:40;6.80;;;6.10;;
77602;SDS011;66771;52.434;17.056;2023-04-24T10:46:08;8.00;;;6.80;;
77602;SDS011;66771;52.434;17.056;2023-04-24T10:48:41;9.40;;;6.00;;
77602;SDS011;66771;52.434;17.056;2023-04-24T10:51:11;7.00;;;5.20;;
77602;SDS011;66771;52.434;17.056;2023-04-24T10:53:40;4.80;;;4.30;;
77602;SDS011;66771;52.434;17.056;2023-04-24T10:56:08;6.80;;;4.10;;
77602;SDS011;66771;52.434;17.056;2023-04-24T10:58:41;5.20;;;3.40;;
77602;SDS011;66771;52.434;17.056;2023-04-24T11:01:25;5.50;;;4.40;;
77602;SDS011;66771;52.434;17.056;2023-04-24T11:03:54;8.10;;;5.00;;
77602;SDS011;66771;52.434;17.056;2023-04-24T11:06:32;7.30;;;5.10;;
77602;SDS011;66771;52.434;17.056;2023-04-24T11:09:05;7.20;;;5.00;;
77602;SDS011;66771;52.434;17.056;2023-04-24T11:11:34;6.50;;;4.50;;
77602;SDS011;66771;52.434;17.056;2023-04-24T11:14:04;5.50;;;4.50;;
77602;SDS011;66771;52.434;17.056;2023-04-24T11:16:43;5.10;;;4.60;;
77602;SDS011;66771;52.434;17.056;2023-04-24T11:21:46;8.30;;;5.00;;
77602;SDS011;66771;52.434;17.056;2023-04-24T11:24:21;5.60;;;5.00;;
77602;SDS011;66771;52.434;17.056;2023-04-24T11:26:51;7.30;;;5.90;;
77602;SDS011;66771;52.434;17.056;2023-04-24T11:32:35;6.80;;;5.40;;
77602;SDS011;66771;52.434;17.056;2023-04-24T11:37:45;7.70;;;5.20;;
77602;SDS011;66771;52.434;17.056;2023-04-24T11:40:17;7.40;;;4.90;;
77602;SDS011;66771;52.434;17.056;2023-04-24T11:42:47;5.30;;;4.30;;
77602;SDS011;66771;52.434;17.056;2023-04-24T11:45:18;4.50;;;3.80;;
77602;SDS011;66771;52.434;17.056;2023-04-24T11:47:48;4.50;;;2.90;;
77602;SDS011;66771;52.434;17.056;2023-04-24T11:50:17;7.40;;;2.90;;
77602;SDS011;66771;52.434;17.056;2023-04-24T11:52:48;5.00;;;3.20;;
77602;SDS011;66771;52.434;17.056;2023-04-24T11:57:43;6.40;;;2.60;;
77602;SDS011;66771;52.434;17.056;2023-04-24T12:00:18;4.20;;;2.90;;
77602;SDS011;66771;52.434;17.056;2023-04-24T12:02:47;4.40;;;3.00;;
77602;SDS011;66771;52.434;17.056;2023-04-24T12:05:27;4.30;;;2.60;;
77602;SDS011;66771;52.434;17.056;2023-04-24T12:07:54;4.50;;;2.30;;
77602;SDS011;66771;52.434;17.056;2023-04-24T12:10:25;4.10;;;2.70;;
77602;SDS011;66771;52.434;17.056;2023-04-24T12:12:53;4.10;;;2.30;;
77602;SDS011;66771;52.434;17.056;2023-04-24T12:15:23;2.40;;;2.20;;
77602;SDS011;66771;52.434;17.056;2023-04-24T12:17:50;2.60;;;2.40;;
77602;SDS011;66771;52.434;17.056;2023-04-24T12:20:23;4.80;;;2.50;;
77602;SDS011;66771;52.434;17.056;2023-04-24T12:22:57;2.10;;;1.90;;
77602;SDS011;66771;52.434;17.056;2023-04-24T12:25:26;5.10;;;2.40;;
77602;SDS011;66771;52.434;17.056;2023-04-24T12:30:32;4.60;;;3.10;;
77602;SDS011;66771;52.434;17.056;2023-04-24T12:33:01;4.50;;;2.70;;
77602;SDS011;66771;52.434;17.056;2023-04-24T12:35:30;7.00;;;3.00;;
77602;SDS011;66771;52.434;17.056;2023-04-24T12:38:08;4.30;;;2.90;;
77602;SDS011;66771;52.434;17.056;2023-04-24T12:40:39;3.70;;;2.90;;
77602;SDS011;66771;52.434;17.056;2023-04-24T12:45:41;5.40;;;3.00;;
77602;SDS011;66771;52.434;17.056;2023-04-24T12:48:08;3.80;;;2.80;;
77602;SDS011;66771;52.434;17.056;2023-04-24T12:50:35;5.70;;;2.70;;
77602;SDS011;66771;52.434;17.056;2023-04-24T12:53:02;4.00;;;2.80;;
77602;SDS011;66771;52.434;17.056;2023-04-24T12:55:31;5.10;;;2.90;;
77602;SDS011;66771;52.434;17.056;2023-04-24T12:57:58;2.70;;;2.50;;
77602;SDS011;66771;52.434;17.056;2023-04-24T13:00:25;5.40;;;3.00;;
77602;SDS011;66771;52.434;17.056;2023-04-24T13:02:52;5.60;;;3.10;;
77602;SDS011;66771;52.434;17.056;2023-04-24T13:05:18;7.40;;;2.80;;
77602;SDS011;66771;52.434;17.056;2023-04-24T13:07:45;6.10;;;3.30;;
77602;SDS011;66771;52.434;17.056;2023-04-24T13:10:12;6.80;;;3.50;;
77602;SDS011;66771;52.434;17.056;2023-04-24T13:12:39;6.20;;;3.30;;
77602;SDS011;66771;52.434;17.056;2023-04-24T13:15:06;5.10;;;3.40;;
77602;SDS011;66771;52.434;17.056;2023-04-24T13:17:34;9.30;;;3.50;;
77602;SDS011;66771;52.434;17.056;2023-04-24T13:20:00;6.20;;;2.70;;
77602;SDS011;66771;52.434;17.056;2023-04-24T13:22:27;3.60;;;2.90;;
77602;SDS011;66771;52.434;17.056;2023-04-24T13:24:54;6.10;;;3.10;;
77602;SDS011;66771;52.434;17.056;2023-04-24T13:27:32;3.40;;;2.70;;
77602;SDS011;66771;52.434;17.056;2023-04-24T13:29:59;4.70;;;2.90;;
77602;SDS011;66771;52.434;17.056;2023-04-24T13:32:26;3.20;;;2.90;;
77602;SDS011;66771;52.434;17.056;2023-04-24T13:34:54;5.10;;;2.30;;
77602;SDS011;66771;52.434;17.056;2023-04-24T13:37:20;6.80;;;3.20;;
77602;SDS011;66771;52.434;17.056;2023-04-24T13:39:48;3.80;;;2.60;;
77602;SDS011;66771;52.434;17.056;2023-04-24T13:42:15;4.90;;;2.50;;
77602;SDS011;66771;52.434;17.056;2023-04-24T13:44:42;4.80;;;2.20;;
77602;SDS011;66771;52.434;17.056;2023-04-24T13:47:09;3.60;;;2.40;;
77602;SDS011;66771;52.434;17.056;2023-04-24T13:49:36;5.80;;;2.20;;
77602;SDS011;66771;52.434;17.056;2023-04-24T13:52:02;3.80;;;2.00;;
77602;SDS011;66771;52.434;17.056;2023-04-24T13:54:29;3.80;;;2.00;;
77602;SDS011;66771;52.434;17.056;2023-04-24T13:56:57;3.50;;;2.10;;
77602;SDS011;66771;52.434;17.056;2023-04-24T13:59:24;2.80;;;1.80;;
77602;SDS011;66771;52.434;17.056;2023-04-24T14:01:51;2.90;;;2.00;;
77602;SDS011;66771;52.434;17.056;2023-04-24T14:04:18;2.90;;;2.00;;
77602;SDS011;66771;52.434;17.056;2023-04-24T14:06:45;3.60;;;2.00;;
77602;SDS011;66771;52.434;17.056;2023-04-24T14:09:11;2.40;;;1.60;;
77602;SDS011;66771;52.434;17.056;2023-04-24T14:11:39;3.20;;;1.90;;
77602;SDS011;66771;52.434;17.056;2023-04-24T14:14:07;4.70;;;2.00;;
77602;SDS011;66771;52.434;17.056;2023-04-24T14:16:34;2.90;;;1.90;;
77602;SDS011;66771;52.434;17.056;2023-04-24T14:19:01;4.20;;;1.90;;
77602;SDS011;66771;52.434;17.056;2023-04-24T14:21:28;5.00;;;1.60;;
77602;SDS011;66771;52.434;17.056;2023-04-24T14:23:54;2.40;;;1.30;;
77602;SDS011;66771;52.434;17.056;2023-04-24T14:26:21;1.80;;;1.10;;
77602;SDS011;66771;52.434;17.056;2023-04-24T14:28:48;1.60;;;1.00;;
77602;SDS011;66771;52.434;17.056;2023-04-24T14:31:15;5.10;;;1.40;;
77602;SDS011;66771;52.434;17.056;2023-04-24T14:33:42;2.20;;;1.30;;
77602;SDS011;66771;52.434;17.056;2023-04-24T14:36:08;2.30;;;1.40;;
77602;SDS011;66771;52.434;17.056;2023-04-24T14:38:35;4.00;;;1.30;;
77602;SDS011;66771;52.434;17.056;2023-04-24T14:41:02;1.90;;;1.50;;
77602;SDS011;66771;52.434;17.056;2023-04-24T14:43:35;3.20;;;1.30;;
77602;SDS011;66771;52.434;17.056;2023-04-24T14:46:02;2.90;;;1.20;;
77602;SDS011;66771;52.434;17.056;2023-04-24T14:48:30;3.90;;;1.40;;
77602;SDS011;66771;52.434;17.056;2023-04-24T14:50:58;1.80;;;1.30;;
77602;SDS011;66771;52.434;17.056;2023-04-24T14:53:25;2.70;;;1.40;;